createdAt,value
2018-10-03T00:02:15.433Z,1.75
2018-10-03T00:04:44.098Z,1.70
2018-10-03T00:07:12.645Z,2.10
2018-10-03T00:09:41.079Z,1.70
2018-10-03T00:12:09.568Z,1.90
2018-10-03T00:14:37.898Z,2.40
2018-10-03T00:17:06.390Z,2.30
2018-10-03T00:19:35.038Z,1.73
2018-10-03T00:22:03.316Z,2.20
2018-10-03T00:24:31.698Z,2.00
2018-10-03T00:26:59.995Z,1.73
2018-10-03T00:29:28.338Z,1.70
2018-10-03T00:31:56.665Z,1.70
2018-10-03T00:34:25.166Z,1.90
2018-10-03T00:36:53.425Z,1.90
2018-10-03T00:39:21.733Z,1.93
2018-10-03T00:41:50.028Z,1.90
2018-10-03T00:44:18.392Z,2.23
2018-10-03T00:46:46.729Z,2.00
2018-10-03T00:49:15.024Z,2.30
2018-10-03T00:51:43.421Z,2.02
2018-10-03T00:54:11.898Z,2.00
2018-10-03T00:56:40.208Z,2.40
2018-10-03T00:59:08.603Z,1.77
2018-10-03T01:01:36.860Z,1.65
2018-10-03T01:04:05.203Z,1.83
2018-10-03T01:06:33.495Z,1.70
2018-10-03T01:09:01.816Z,1.97
2018-10-03T01:11:30.171Z,1.80
2018-10-03T01:13:58.631Z,1.83
2018-10-03T01:16:26.949Z,1.83
2018-10-03T01:18:55.279Z,2.57
2018-10-03T01:21:23.661Z,1.90
2018-10-03T01:23:51.970Z,1.60
2018-10-03T01:26:20.256Z,2.03
2018-10-03T01:28:48.588Z,2.43
2018-10-03T01:31:16.937Z,1.83
2018-10-03T01:33:45.292Z,1.80
2018-10-03T01:36:13.597Z,1.90
2018-10-03T01:38:41.994Z,2.20
2018-10-03T01:41:10.343Z,1.60
2018-10-03T01:43:38.653Z,1.67
2018-10-03T01:46:07.098Z,1.87
2018-10-03T01:48:35.806Z,1.80
2018-10-03T01:51:04.164Z,1.63
2018-10-03T01:53:32.512Z,1.67
2018-10-03T01:56:00.881Z,1.50
2018-10-03T01:58:29.368Z,1.97
2018-10-03T02:00:57.668Z,1.87
2018-10-03T02:03:25.962Z,2.50
2018-10-03T02:05:54.354Z,1.40
2018-10-03T02:08:22.677Z,1.73
2018-10-03T02:10:51.029Z,1.80
2018-10-03T02:13:19.368Z,1.97
2018-10-03T02:15:47.713Z,2.10
2018-10-03T02:18:16.266Z,1.67
2018-10-03T02:20:44.615Z,1.53
2018-10-03T02:23:13.012Z,2.00
2018-10-03T02:25:41.392Z,2.20
2018-10-03T02:28:09.661Z,1.67
2018-10-03T02:30:37.966Z,1.60
2018-10-03T02:33:06.279Z,1.73
2018-10-03T02:35:34.610Z,1.70
2018-10-03T02:38:02.978Z,1.27
2018-10-03T02:40:31.367Z,1.77
2018-10-03T02:42:59.730Z,1.60
2018-10-03T02:45:28.028Z,1.60
2018-10-03T02:47:56.343Z,2.10
2018-10-03T02:50:24.779Z,2.40
2018-10-03T02:52:53.098Z,1.40
2018-10-03T02:55:21.407Z,1.93
2018-10-03T02:57:49.700Z,2.67
2018-10-03T03:00:18.192Z,1.60
2018-10-03T03:02:46.594Z,1.60
2018-10-03T03:05:15.956Z,1.73
2018-10-03T03:07:44.276Z,1.90
2018-10-03T03:10:12.748Z,1.77
2018-10-03T03:12:41.053Z,1.50
2018-10-03T03:15:09.479Z,2.07
2018-10-03T03:17:37.840Z,1.47
2018-10-03T03:20:06.271Z,1.77
2018-10-03T03:22:34.557Z,1.60
2018-10-03T03:25:02.975Z,1.63
2018-10-03T03:27:31.480Z,2.03
2018-10-03T03:29:59.736Z,1.57
2018-10-03T03:32:28.448Z,1.80
2018-10-03T03:34:56.761Z,1.87
2018-10-03T03:37:25.217Z,1.70
2018-10-03T03:39:53.696Z,2.00
2018-10-03T03:42:22.182Z,1.70
2018-10-03T03:44:50.855Z,1.83
2018-10-03T03:47:19.181Z,1.67
2018-10-03T03:49:47.447Z,1.70
2018-10-03T03:52:15.807Z,1.83
2018-10-03T03:54:44.080Z,1.77
2018-10-03T03:57:12.559Z,1.90
2018-10-03T03:59:42.125Z,2.10
2018-10-03T04:02:10.426Z,2.30
2018-10-03T04:04:38.786Z,2.30
2018-10-03T04:07:07.253Z,1.80
2018-10-03T04:09:36.075Z,2.07
2018-10-03T04:12:04.428Z,1.80
2018-10-03T04:14:32.729Z,2.83
2018-10-03T04:17:01.007Z,2.30
2018-10-03T04:19:29.270Z,2.17
2018-10-03T04:21:57.587Z,2.35
2018-10-03T04:24:25.964Z,2.30
2018-10-03T04:26:54.381Z,1.87
2018-10-03T04:29:22.717Z,2.50
2018-10-03T04:31:51.071Z,1.93
2018-10-03T04:34:19.553Z,2.00
2018-10-03T04:36:47.962Z,2.07
2018-10-03T04:39:16.400Z,1.90
2018-10-03T04:41:44.878Z,1.67
2018-10-03T04:44:13.192Z,2.03
2018-10-03T04:46:41.520Z,2.00
2018-10-03T04:49:10.105Z,1.70
2018-10-03T04:51:38.355Z,2.10
2018-10-03T04:54:06.872Z,1.73
2018-10-03T04:56:35.146Z,1.70
2018-10-03T04:59:03.548Z,1.50
2018-10-03T05:01:31.977Z,1.60
2018-10-03T05:04:00.324Z,1.63
2018-10-03T05:06:28.858Z,1.30
2018-10-03T05:08:57.402Z,1.53
2018-10-03T05:11:25.939Z,1.50
2018-10-03T05:13:54.404Z,1.47
2018-10-03T05:16:22.780Z,2.13
2018-10-03T05:18:51.100Z,1.37
2018-10-03T05:21:19.652Z,1.53
2018-10-03T05:23:48.231Z,1.43
2018-10-03T05:26:17.341Z,1.30
2018-10-03T05:28:45.637Z,2.10
2018-10-03T05:31:14.080Z,1.25
2018-10-03T05:33:42.466Z,2.03
2018-10-03T05:36:10.810Z,1.40
2018-10-03T05:38:39.349Z,1.30
2018-10-03T05:41:07.676Z,1.37
2018-10-03T05:43:35.987Z,1.33
2018-10-03T05:46:04.371Z,1.43
2018-10-03T05:48:32.665Z,1.27
2018-10-03T05:51:00.886Z,1.63
2018-10-03T05:53:29.202Z,2.03
2018-10-03T05:55:57.524Z,1.40
2018-10-03T05:58:25.860Z,1.30
2018-10-03T06:00:54.285Z,2.33
2018-10-03T06:03:22.760Z,1.67
2018-10-03T06:05:51.021Z,1.50
2018-10-03T06:08:19.419Z,1.13
2018-10-03T06:10:47.819Z,1.40
2018-10-03T06:13:16.220Z,1.40
2018-10-03T06:15:44.928Z,1.30
2018-10-03T06:18:13.485Z,1.90
2018-10-03T06:20:41.969Z,1.60
2018-10-03T06:23:10.352Z,1.73
2018-10-03T06:25:38.736Z,1.63
2018-10-03T06:28:07.089Z,1.47
2018-10-03T06:30:35.608Z,1.30
2018-10-03T06:33:03.939Z,1.50
2018-10-03T06:35:32.680Z,1.10
2018-10-03T06:38:01.148Z,1.63
2018-10-03T06:40:29.430Z,1.70
2018-10-03T06:42:58.536Z,1.90
2018-10-03T06:45:27.225Z,1.93
2018-10-03T06:47:56.595Z,3.50
2018-10-03T06:50:25.827Z,1.90
2018-10-03T06:52:54.252Z,1.77
2018-10-03T06:55:22.646Z,1.83
2018-10-03T06:57:50.960Z,1.73
2018-10-03T07:00:19.511Z,1.53
2018-10-03T07:02:47.930Z,1.30
2018-10-03T07:05:16.496Z,1.80
2018-10-03T07:07:44.857Z,1.67
2018-10-03T07:10:13.432Z,1.70
2018-10-03T07:12:41.899Z,2.10
2018-10-03T07:15:10.495Z,1.80
2018-10-03T07:17:38.904Z,1.73
2018-10-03T07:20:07.527Z,1.93
2018-10-03T07:22:35.876Z,2.27
2018-10-03T07:25:04.430Z,1.83
2018-10-03T07:27:32.909Z,1.97
2018-10-03T07:30:01.366Z,2.13
2018-10-03T07:32:30.426Z,2.23
2018-10-03T07:34:58.813Z,2.17
2018-10-03T07:37:27.118Z,2.37
2018-10-03T07:39:56.906Z,1.93
2018-10-03T07:42:25.181Z,2.03
2018-10-03T07:44:53.488Z,2.27
2018-10-03T07:47:21.887Z,2.30
2018-10-03T07:49:50.359Z,2.60
2018-10-03T07:52:18.640Z,1.60
2018-10-03T07:54:46.939Z,1.93
2018-10-03T07:57:15.274Z,2.10
2018-10-03T07:59:43.553Z,2.23
2018-10-03T08:02:11.897Z,2.33
2018-10-03T08:04:40.389Z,2.13
2018-10-03T08:07:08.631Z,2.17
2018-10-03T08:09:36.923Z,1.70
2018-10-03T08:12:05.333Z,2.53
2018-10-03T08:14:33.633Z,2.57
2018-10-03T08:17:01.958Z,2.70
2018-10-03T08:19:30.420Z,3.00
2018-10-03T08:21:58.724Z,3.07
2018-10-03T08:24:27.168Z,2.50
2018-10-03T08:26:55.454Z,2.53
2018-10-03T08:29:23.863Z,2.50
2018-10-03T08:31:52.260Z,2.73
2018-10-03T08:34:21.212Z,3.00
2018-10-03T08:36:49.553Z,2.53
2018-10-03T08:39:18.047Z,2.10
2018-10-03T08:41:46.423Z,2.63
2018-10-03T08:44:14.703Z,2.60
2018-10-03T08:46:43.166Z,2.60
2018-10-03T08:49:11.469Z,2.43
2018-10-03T08:51:39.747Z,2.20
2018-10-03T08:54:08.003Z,3.17
2018-10-03T08:56:36.344Z,2.43
2018-10-03T08:59:04.637Z,2.83
2018-10-03T09:01:33.124Z,2.27
2018-10-03T09:04:01.772Z,2.63
2018-10-03T09:06:30.088Z,2.57
2018-10-03T09:08:58.391Z,3.20
2018-10-03T09:11:27.223Z,2.90
2018-10-03T09:13:55.737Z,2.37
2018-10-03T09:16:24.247Z,3.30
2018-10-03T09:18:52.532Z,3.40
2018-10-03T09:21:20.888Z,4.17
2018-10-03T09:23:49.264Z,4.57
2018-10-03T09:26:17.565Z,4.57
2018-10-03T09:28:45.889Z,3.90
2018-10-03T09:31:14.892Z,4.37
2018-10-03T09:33:43.317Z,3.20
2018-10-03T09:36:11.743Z,3.60
2018-10-03T09:38:40.053Z,4.87
2018-10-03T09:41:08.344Z,4.03
2018-10-03T09:43:36.651Z,4.87
2018-10-03T09:46:04.983Z,5.17
2018-10-03T09:48:33.282Z,4.33
2018-10-03T09:51:02.456Z,4.63
2018-10-03T09:53:31.145Z,4.50
2018-10-03T09:55:59.438Z,4.40
2018-10-03T09:58:27.909Z,4.90
2018-10-03T10:01:01.784Z,5.40
2018-10-03T10:03:30.453Z,4.60
2018-10-03T10:05:58.794Z,4.93
2018-10-03T10:08:27.371Z,5.10
2018-10-03T10:10:55.730Z,5.00
2018-10-03T10:13:24.250Z,4.63
2018-10-03T10:15:52.664Z,4.50
2018-10-03T10:18:21.063Z,4.00
2018-10-03T10:20:49.908Z,4.80
2018-10-03T10:23:18.290Z,4.90
2018-10-03T10:25:46.588Z,4.97
2018-10-03T10:28:15.016Z,4.23
2018-10-03T10:30:43.413Z,4.83
2018-10-03T10:33:12.092Z,4.83
2018-10-03T10:35:40.456Z,5.00
2018-10-03T10:38:08.891Z,3.90
2018-10-03T10:40:38.681Z,4.87
2018-10-03T10:43:07.377Z,4.47
2018-10-03T10:45:35.748Z,4.67
2018-10-03T10:48:04.393Z,4.97
2018-10-03T10:50:32.666Z,3.73
2018-10-03T10:53:00.968Z,4.10
2018-10-03T10:55:29.492Z,4.00
2018-10-03T10:57:57.833Z,4.17
2018-10-03T11:00:27.545Z,4.47
2018-10-03T11:02:56.156Z,4.17
2018-10-03T11:05:24.640Z,4.20
2018-10-03T11:07:53.451Z,4.00
2018-10-03T11:10:21.889Z,4.17
2018-10-03T11:12:50.373Z,3.77
2018-10-03T11:15:19.421Z,4.13
2018-10-03T11:17:47.685Z,4.57
2018-10-03T11:20:16.335Z,3.80
2018-10-03T11:22:44.690Z,3.90
2018-10-03T11:25:13.106Z,4.23
2018-10-03T11:27:41.598Z,4.60
2018-10-03T11:30:09.789Z,3.37
2018-10-03T11:32:38.283Z,4.23
2018-10-03T11:35:06.954Z,3.77
2018-10-03T11:37:35.393Z,4.00
2018-10-03T11:40:03.898Z,3.73
2018-10-03T11:42:32.196Z,4.37
2018-10-03T11:45:00.602Z,4.00
2018-10-03T11:47:29.000Z,3.37
2018-10-03T11:49:57.353Z,4.73
2018-10-03T11:52:26.546Z,4.60
2018-10-03T11:54:54.923Z,5.40
2018-10-03T11:57:23.339Z,6.53
2018-10-03T11:59:51.724Z,4.57
2018-10-03T12:02:20.070Z,4.13
2018-10-03T12:04:48.331Z,6.80
2018-10-03T12:07:16.729Z,5.97
2018-10-03T12:09:45.224Z,4.47
2018-10-03T12:12:13.547Z,4.80
2018-10-03T12:14:42.007Z,5.13
2018-10-03T12:17:10.426Z,9.83
2018-10-03T12:19:38.715Z,8.10
2018-10-03T12:22:07.110Z,7.20
2018-10-03T12:24:35.562Z,4.53
2018-10-03T12:27:03.917Z,4.70
2018-10-03T12:29:32.374Z,4.90
2018-10-03T12:32:00.756Z,4.80
2018-10-03T12:34:29.113Z,4.50
2018-10-03T12:36:57.471Z,4.63
2018-10-03T12:39:25.847Z,5.50
2018-10-03T12:41:54.506Z,4.33
2018-10-03T12:44:22.812Z,5.13
2018-10-03T12:46:51.162Z,5.00
2018-10-03T12:49:19.474Z,5.40
2018-10-03T12:51:47.781Z,5.20
2018-10-03T12:54:16.098Z,9.10
2018-10-03T12:56:44.632Z,5.30
2018-10-03T12:59:13.007Z,5.23
2018-10-03T13:01:41.521Z,4.40
2018-10-03T13:04:10.050Z,5.30
2018-10-03T13:06:38.359Z,4.43
2018-10-03T13:09:10.112Z,4.40
2018-10-03T13:11:38.369Z,7.30
2018-10-03T13:14:07.046Z,4.80
2018-10-03T13:16:35.320Z,4.80
2018-10-03T13:19:03.672Z,4.50
2018-10-03T13:21:32.163Z,4.77
2018-10-03T13:24:00.489Z,5.33
2018-10-03T13:26:28.742Z,5.37
2018-10-03T13:28:57.314Z,6.57
2018-10-03T13:31:25.720Z,4.73
2018-10-03T13:33:54.050Z,5.00
2018-10-03T13:36:22.544Z,5.33
2018-10-03T13:38:50.929Z,5.57
2018-10-03T13:41:19.199Z,4.60
2018-10-03T13:43:47.599Z,5.70
2018-10-03T13:46:15.894Z,6.80
2018-10-03T13:48:44.213Z,5.20
2018-10-03T13:51:12.664Z,5.60
2018-10-03T13:53:41.112Z,4.50
2018-10-03T13:56:09.623Z,4.17
2018-10-03T13:58:37.962Z,4.80
2018-10-03T14:01:06.352Z,4.63
2018-10-03T14:03:35.038Z,7.30
2018-10-03T14:06:03.370Z,10.30
2018-10-03T14:08:31.701Z,7.50
2018-10-03T14:11:00.012Z,10.73
2018-10-03T14:13:28.300Z,8.33
2018-10-03T14:15:56.637Z,3.23
2018-10-03T14:18:25.216Z,22.50
2018-10-03T14:20:53.501Z,3.80
2018-10-03T14:23:22.077Z,4.17
2018-10-03T14:25:50.393Z,4.23
2018-10-03T14:28:19.447Z,4.57
2018-10-03T14:30:48.150Z,4.40
2018-10-03T14:33:16.510Z,4.40
2018-10-03T14:35:44.907Z,4.43
2018-10-03T14:38:13.252Z,4.00
2018-10-03T14:40:41.604Z,3.93
2018-10-03T14:43:09.869Z,4.27
2018-10-03T14:45:38.218Z,4.00
2018-10-03T14:48:06.500Z,4.13
2018-10-03T14:50:34.929Z,4.40
2018-10-03T14:53:03.384Z,3.63
2018-10-03T14:55:31.824Z,3.87
2018-10-03T14:58:00.225Z,4.40
2018-10-03T15:00:28.604Z,3.90
2018-10-03T15:02:56.876Z,3.60
2018-10-03T15:05:25.341Z,7.97
2018-10-03T15:07:53.717Z,5.90
2018-10-03T15:10:22.141Z,5.80
2018-10-03T15:12:50.485Z,10.77
2018-10-03T15:15:18.852Z,16.60
2018-10-03T15:17:47.207Z,19.80
2018-10-03T15:20:15.649Z,6.00
2018-10-03T15:22:43.981Z,25.57
2018-10-03T15:25:12.379Z,9.30
2018-10-03T15:27:40.783Z,4.50
2018-10-03T15:30:09.241Z,4.47
2018-10-03T15:32:37.596Z,3.80
2018-10-03T15:35:05.954Z,3.80
2018-10-03T15:37:34.989Z,3.90
2018-10-03T15:40:03.387Z,4.00
2018-10-03T15:42:31.715Z,5.00
2018-10-03T15:45:00.097Z,4.77
2018-10-03T15:47:28.413Z,3.60
2018-10-03T15:49:56.892Z,3.83
2018-10-03T15:52:25.194Z,4.13
2018-10-03T15:54:53.536Z,4.00
2018-10-03T15:57:21.823Z,4.13
2018-10-03T15:59:50.119Z,4.20
2018-10-03T16:02:18.600Z,4.73
2018-10-03T16:04:46.932Z,3.80
2018-10-03T16:07:15.276Z,4.07
2018-10-03T16:09:43.724Z,4.00
2018-10-03T16:12:12.120Z,4.10
2018-10-03T16:14:40.383Z,4.60
2018-10-03T16:17:08.693Z,3.73
2018-10-03T16:19:37.186Z,22.80
2018-10-03T16:22:05.526Z,4.67
2018-10-03T16:24:33.882Z,4.37
2018-10-03T16:27:02.143Z,4.10
2018-10-03T16:29:30.463Z,4.03
2018-10-03T16:31:58.769Z,3.93
2018-10-03T16:34:27.078Z,5.20
2018-10-03T16:36:55.544Z,19.00
2018-10-03T16:39:23.853Z,17.90
2018-10-03T16:41:52.153Z,16.47
2018-10-03T16:44:20.473Z,14.73
2018-10-03T16:46:48.776Z,12.93
2018-10-03T16:49:17.137Z,10.67
2018-10-03T16:51:45.508Z,7.70
2018-10-03T16:54:14.125Z,9.60
2018-10-03T16:56:42.440Z,8.40
2018-10-03T16:59:10.743Z,8.10
2018-10-03T17:01:39.636Z,7.00
2018-10-03T17:04:08.238Z,4.30
2018-10-03T17:06:36.622Z,3.90
2018-10-03T17:09:06.644Z,4.10
2018-10-03T17:11:35.356Z,10.13
2018-10-03T17:14:14.825Z,11.50
2018-10-03T17:16:43.092Z,8.43
2018-10-03T17:19:11.424Z,11.60
2018-10-03T17:21:39.728Z,9.40
2018-10-03T17:24:08.372Z,7.03
2018-10-03T17:26:36.871Z,9.93
2018-10-03T17:29:05.158Z,8.83
2018-10-03T17:31:33.526Z,7.07
2018-10-03T17:34:02.012Z,5.87
2018-10-03T17:36:31.019Z,7.27
2018-10-03T17:39:00.160Z,6.53
2018-10-03T17:41:28.792Z,6.17
2018-10-03T17:43:57.307Z,5.40
2018-10-03T17:46:25.858Z,5.03
2018-10-03T17:48:54.486Z,4.47
2018-10-03T17:51:22.913Z,4.80
2018-10-03T17:53:51.341Z,5.53
2018-10-03T17:56:20.066Z,4.47
2018-10-03T17:58:48.420Z,5.50
2018-10-03T18:01:16.865Z,4.53
2018-10-03T18:03:45.257Z,4.60
2018-10-03T18:06:13.704Z,5.03
2018-10-03T18:08:42.399Z,4.57
2018-10-03T18:11:11.174Z,4.50
2018-10-03T18:13:39.589Z,3.60
2018-10-03T18:16:07.955Z,5.10
2018-10-03T18:18:36.864Z,4.20
2018-10-03T18:21:05.386Z,4.57
2018-10-03T18:23:33.706Z,5.40
2018-10-03T18:26:02.132Z,5.10
2018-10-03T18:28:30.416Z,4.40
2018-10-03T18:30:58.927Z,5.03
2018-10-03T18:33:27.250Z,4.77
2018-10-03T18:35:55.676Z,5.00
2018-10-03T18:38:24.153Z,4.83
2018-10-03T18:40:52.760Z,4.83
2018-10-03T18:43:21.078Z,6.13
2018-10-03T18:45:49.619Z,6.60
2018-10-03T18:48:17.987Z,7.57
2018-10-03T18:50:46.578Z,7.47
2018-10-03T18:53:15.000Z,7.37
2018-10-03T18:55:43.379Z,7.10
2018-10-03T18:58:11.874Z,7.40
2018-10-03T19:00:40.454Z,8.00
2018-10-03T19:03:08.856Z,8.23
2018-10-03T19:05:37.458Z,8.77
2018-10-03T19:08:05.823Z,8.00
2018-10-03T19:10:34.228Z,7.80
2018-10-03T19:13:02.588Z,9.00
2018-10-03T19:15:30.945Z,8.53
2018-10-03T19:17:59.452Z,8.27
2018-10-03T19:20:29.245Z,9.13
2018-10-03T19:35:26.777Z,11.97
2018-10-03T19:38:20.935Z,10.57
2018-10-03T19:43:54.237Z,9.85
2018-10-03T19:46:23.438Z,9.43
2018-10-03T19:48:53.673Z,10.13
2018-10-03T19:51:23.432Z,9.93
2018-10-03T19:53:56.366Z,9.83
2018-10-03T19:56:27.013Z,9.50
2018-10-03T19:58:56.308Z,10.00
2018-10-03T20:01:25.804Z,10.53
2018-10-03T20:03:54.959Z,10.53
2018-10-03T20:06:43.334Z,9.13
2018-10-03T20:09:18.027Z,10.47
2018-10-03T20:11:47.051Z,12.28
2018-10-03T20:14:17.733Z,11.90
2018-10-03T20:16:46.861Z,14.03
2018-10-03T20:19:15.557Z,13.70
2018-10-03T20:21:44.432Z,16.27
2018-10-03T20:24:18.908Z,16.13
2018-10-03T20:26:49.590Z,14.80
2018-10-03T20:29:19.680Z,16.25
2018-10-03T20:32:00.995Z,14.67
2018-10-03T20:34:30.154Z,15.80
2018-10-03T20:37:00.562Z,14.18
2018-10-03T20:39:29.443Z,14.63
2018-10-03T20:41:58.980Z,16.70
2018-10-03T20:44:27.760Z,16.00
2018-10-03T20:46:56.347Z,16.23
2018-10-03T20:49:25.370Z,15.20
2018-10-03T20:51:54.005Z,14.40
2018-10-03T20:54:24.810Z,15.10
2018-10-03T20:56:53.794Z,14.20
2018-10-03T20:59:27.444Z,14.40
2018-10-03T21:01:57.244Z,12.90
2018-10-03T21:04:25.933Z,13.30
2018-10-03T21:06:54.746Z,12.17
2018-10-03T21:09:25.578Z,12.30
2018-10-03T21:11:54.780Z,11.12
2018-10-03T21:14:29.644Z,14.07
2018-10-03T21:16:58.011Z,16.00
2018-10-03T21:19:26.471Z,15.58
2018-10-03T21:21:55.168Z,15.50
2018-10-03T21:24:24.799Z,13.72
2018-10-03T21:26:55.434Z,13.28
2018-10-03T21:29:25.170Z,14.80
2018-10-03T21:31:54.573Z,15.08
2018-10-03T21:34:24.398Z,14.13
2018-10-03T21:36:55.471Z,14.20
2018-10-03T21:39:32.505Z,13.40
2018-10-03T21:42:11.285Z,15.20
2018-10-03T21:44:40.743Z,14.28
2018-10-03T21:47:09.559Z,14.78
2018-10-03T21:49:38.071Z,14.47
2018-10-03T21:52:06.842Z,14.33
2018-10-03T21:54:59.180Z,13.10
2018-10-03T21:57:27.926Z,13.85
2018-10-03T22:00:04.325Z,13.65
2018-10-03T22:02:32.928Z,14.15
2018-10-03T22:05:16.017Z,12.70
2018-10-03T22:07:44.583Z,12.78
2018-10-03T22:10:13.275Z,13.20
2018-10-03T22:12:41.869Z,14.25
2018-10-03T22:15:28.406Z,12.40
2018-10-03T22:17:57.021Z,12.27
2018-10-03T22:20:25.844Z,12.60
2018-10-03T22:25:47.037Z,14.80
2018-10-03T22:28:15.584Z,18.42
2018-10-03T22:30:44.076Z,18.27
2018-10-03T22:33:12.649Z,18.70
2018-10-03T22:35:41.198Z,15.18
2018-10-03T22:38:09.862Z,16.02
2018-10-03T22:40:38.462Z,15.78
2018-10-03T22:43:06.754Z,15.15
2018-10-03T22:45:35.052Z,14.95
2018-10-03T22:48:03.348Z,14.00
2018-10-03T22:50:31.678Z,14.00
2018-10-03T22:53:00.207Z,15.20
2018-10-03T22:55:28.660Z,14.10
2018-10-03T22:58:01.716Z,13.78
2018-10-03T23:00:30.192Z,13.45
2018-10-03T23:02:58.645Z,13.35
2018-10-03T23:05:27.244Z,13.18
2018-10-03T23:07:55.618Z,13.98
2018-10-03T23:10:27.479Z,12.70
2018-10-03T23:12:55.980Z,13.25
2018-10-03T23:15:24.682Z,14.50
2018-10-03T23:17:53.328Z,15.55
2018-10-03T23:20:21.898Z,14.63
2018-10-03T23:22:50.490Z,15.18
2018-10-03T23:25:19.238Z,13.70
2018-10-03T23:28:09.988Z,15.48
2018-10-03T23:30:38.577Z,16.37
2018-10-03T23:33:30.386Z,16.75
2018-10-03T23:35:59.001Z,16.00
2018-10-03T23:38:27.449Z,17.32
2018-10-03T23:40:56.075Z,16.12
2018-10-03T23:43:24.603Z,17.15
2018-10-03T23:45:53.209Z,16.87
2018-10-03T23:48:21.841Z,16.00
2018-10-03T23:50:50.471Z,16.05
2018-10-03T23:56:30.473Z,14.70
2018-10-03T23:58:59.012Z,16.48
